sensor_id;sensor_type;location;lat;lon;timestamp;temperature;humidity
31074;DHT22;17730;53.552;9.940;2023-04-03T00:00:38;1.70;99.90
31074;DHT22;17730;53.552;9.940;2023-04-03T00:03:03;1.70;99.90
31074;DHT22;17730;53.552;9.940;2023-04-03T00:05:29;1.70;99.90
31074;DHT22;17730;53.552;9.940;2023-04-03T00:07:55;1.70;99.90
31074;DHT22;17730;53.552;9.940;2023-04-03T00:10:20;1.70;99.90
31074;DHT22;17730;53.552;9.940;2023-04-03T00:12:46;1.70;99.90
31074;DHT22;17730;53.552;9.940;2023-04-03T00:15:11;1.80;99.90
31074;DHT22;17730;53.552;9.940;2023-04-03T00:17:37;1.70;99.90
31074;DHT22;17730;53.552;9.940;2023-04-03T00:20:03;1.70;99.90
31074;DHT22;17730;53.552;9.940;2023-04-03T00:22:30;1.80;99.90
31074;DHT22;17730;53.552;9.940;2023-04-03T00:24:55;1.70;99.90
31074;DHT22;17730;53.552;9.940;2023-04-03T00:27:21;1.80;99.90
31074;DHT22;17730;53.552;9.940;2023-04-03T00:29:47;1.80;99.90
31074;DHT22;17730;53.552;9.940;2023-04-03T00:32:12;1.80;99.90
31074;DHT22;17730;53.552;9.940;2023-04-03T00:34:38;1.80;99.90
31074;DHT22;17730;53.552;9.940;2023-04-03T00:37:03;1.80;99.90
31074;DHT22;17730;53.552;9.940;2023-04-03T00:39:28;1.80;99.90
31074;DHT22;17730;53.552;9.940;2023-04-03T00:41:54;1.80;99.90
31074;DHT22;17730;53.552;9.940;2023-04-03T00:46:57;1.80;99.90
31074;DHT22;17730;53.552;9.940;2023-04-03T00:49:23;1.80;99.90
31074;DHT22;17730;53.552;9.940;2023-04-03T00:51:48;1.70;99.90
31074;DHT22;17730;53.552;9.940;2023-04-03T00:54:14;1.70;67.80
31074;DHT22;17730;53.552;9.940;2023-04-03T00:56:39;1.60;55.10
31074;DHT22;17730;53.552;9.940;2023-04-03T00:59:10;1.70;98.10
31074;DHT22;17730;53.552;9.940;2023-04-03T01:01:36;1.60;99.90
31074;DHT22;17730;53.552;9.940;2023-04-03T01:04:02;1.70;99.90
31074;DHT22;17730;53.552;9.940;2023-04-03T01:06:30;1.60;98.70
31074;DHT22;17730;53.552;9.940;2023-04-03T01:08:57;1.60;99.90
31074;DHT22;17730;53.552;9.940;2023-04-03T01:11:24;1.60;92.60
31074;DHT22;17730;53.552;9.940;2023-04-03T01:13:50;1.60;97.80
31074;DHT22;17730;53.552;9.940;2023-04-03T01:16:15;1.60;99.90
31074;DHT22;17730;53.552;9.940;2023-04-03T01:18:41;1.60;99.90
31074;DHT22;17730;53.552;9.940;2023-04-03T01:26:17;1.60;99.90
31074;DHT22;17730;53.552;9.940;2023-04-03T01:28:43;1.60;99.90
31074;DHT22;17730;53.552;9.940;2023-04-03T01:33:40;1.60;99.90
31074;DHT22;17730;53.552;9.940;2023-04-03T01:36:06;1.60;94.70
31074;DHT22;17730;53.552;9.940;2023-04-03T01:38:32;1.60;48.50
31074;DHT22;17730;53.552;9.940;2023-04-03T01:40:58;1.50;1.00
31074;DHT22;17730;53.552;9.940;2023-04-03T01:43:23;1.40;1.00
31074;DHT22;17730;53.552;9.940;2023-04-03T01:45:49;1.50;24.80
31074;DHT22;17730;53.552;9.940;2023-04-03T01:48:15;1.40;47.60
31074;DHT22;17730;53.552;9.940;2023-04-03T01:50:40;1.40;61.00
31074;DHT22;17730;53.552;9.940;2023-04-03T01:53:06;1.40;91.70
31074;DHT22;17730;53.552;9.940;2023-04-03T01:55:32;1.30;99.90
31074;DHT22;17730;53.552;9.940;2023-04-03T01:57:57;1.30;99.90
31074;DHT22;17730;53.552;9.940;2023-04-03T02:00:22;1.30;99.90
31074;DHT22;17730;53.552;9.940;2023-04-03T02:02:48;1.30;99.90
31074;DHT22;17730;53.552;9.940;2023-04-03T02:05:13;1.30;99.90
31074;DHT22;17730;53.552;9.940;2023-04-03T02:07:39;1.30;99.90
31074;DHT22;17730;53.552;9.940;2023-04-03T02:10:05;1.30;99.90
31074;DHT22;17730;53.552;9.940;2023-04-03T02:12:30;1.20;99.90
31074;DHT22;17730;53.552;9.940;2023-04-03T02:14:56;1.20;99.90
31074;DHT22;17730;53.552;9.940;2023-04-03T02:17:21;1.20;99.90
31074;DHT22;17730;53.552;9.940;2023-04-03T02:19:47;1.10;99.90
31074;DHT22;17730;53.552;9.940;2023-04-03T02:22:12;1.10;99.90
31074;DHT22;17730;53.552;9.940;2023-04-03T02:24:38;1.10;99.90
31074;DHT22;17730;53.552;9.940;2023-04-03T02:27:05;1.10;1.00
31074;DHT22;17730;53.552;9.940;2023-04-03T02:29:30;1.10;1.00
31074;DHT22;17730;53.552;9.940;2023-04-03T02:31:56;1.10;1.00
31074;DHT22;17730;53.552;9.940;2023-04-03T02:34:21;1.10;1.00
31074;DHT22;17730;53.552;9.940;2023-04-03T02:36:47;1.10;1.00
31074;DHT22;17730;53.552;9.940;2023-04-03T02:39:12;1.10;1.00
31074;DHT22;17730;53.552;9.940;2023-04-03T02:41:38;1.10;1.00
31074;DHT22;17730;53.552;9.940;2023-04-03T02:44:04;1.10;1.00
31074;DHT22;17730;53.552;9.940;2023-04-03T02:46:30;1.10;1.00
31074;DHT22;17730;53.552;9.940;2023-04-03T02:48:56;1.10;1.00
31074;DHT22;17730;53.552;9.940;2023-04-03T02:51:21;1.00;1.00
31074;DHT22;17730;53.552;9.940;2023-04-03T02:53:48;1.00;1.00
31074;DHT22;17730;53.552;9.940;2023-04-03T02:56:14;1.00;1.30
31074;DHT22;17730;53.552;9.940;2023-04-03T02:58:39;1.00;8.70
31074;DHT22;17730;53.552;9.940;2023-04-03T03:01:05;1.00;3.50
31074;DHT22;17730;53.552;9.940;2023-04-03T03:03:30;1.00;40.00
31074;DHT22;17730;53.552;9.940;2023-04-03T03:06:12;0.90;91.20
31074;DHT22;17730;53.552;9.940;2023-04-03T03:08:38;0.90;99.90
31074;DHT22;17730;53.552;9.940;2023-04-03T03:11:03;0.90;99.90
31074;DHT22;17730;53.552;9.940;2023-04-03T03:13:29;0.80;99.90
31074;DHT22;17730;53.552;9.940;2023-04-03T03:15:55;0.80;99.90
31074;DHT22;17730;53.552;9.940;2023-04-03T03:18:21;0.80;99.90
31074;DHT22;17730;53.552;9.940;2023-04-03T03:20:46;0.80;99.90
31074;DHT22;17730;53.552;9.940;2023-04-03T03:23:12;0.80;99.90
31074;DHT22;17730;53.552;9.940;2023-04-03T03:25:38;0.70;99.90
31074;DHT22;17730;53.552;9.940;2023-04-03T03:28:04;0.80;99.90
31074;DHT22;17730;53.552;9.940;2023-04-03T03:30:29;0.80;99.90
31074;DHT22;17730;53.552;9.940;2023-04-03T03:32:55;0.70;99.90
31074;DHT22;17730;53.552;9.940;2023-04-03T03:35:21;0.70;99.90
31074;DHT22;17730;53.552;9.940;2023-04-03T03:37:46;0.60;99.90
31074;DHT22;17730;53.552;9.940;2023-04-03T03:40:12;0.60;99.90
31074;DHT22;17730;53.552;9.940;2023-04-03T03:42:38;0.60;99.90
31074;DHT22;17730;53.552;9.940;2023-04-03T03:45:04;0.60;99.90
31074;DHT22;17730;53.552;9.940;2023-04-03T03:47:29;0.60;99.90
31074;DHT22;17730;53.552;9.940;2023-04-03T03:49:55;0.50;99.90
31074;DHT22;17730;53.552;9.940;2023-04-03T03:52:20;0.50;99.90
31074;DHT22;17730;53.552;9.940;2023-04-03T03:54:46;0.50;99.90
31074;DHT22;17730;53.552;9.940;2023-04-03T03:57:11;0.50;99.90
31074;DHT22;17730;53.552;9.940;2023-04-03T03:59:37;0.50;99.90
31074;DHT22;17730;53.552;9.940;2023-04-03T04:02:03;0.50;99.90
31074;DHT22;17730;53.552;9.940;2023-04-03T04:04:28;0.50;99.90
31074;DHT22;17730;53.552;9.940;2023-04-03T04:06:54;0.50;99.90
31074;DHT22;17730;53.552;9.940;2023-04-03T04:09:19;0.40;99.90
31074;DHT22;17730;53.552;9.940;2023-04-03T04:11:44;0.40;99.90
31074;DHT22;17730;53.552;9.940;2023-04-03T04:14:10;0.40;99.90
31074;DHT22;17730;53.552;9.940;2023-04-03T04:16:37;0.40;99.90
31074;DHT22;17730;53.552;9.940;2023-04-03T04:19:03;0.40;99.90
31074;DHT22;17730;53.552;9.940;2023-04-03T04:21:28;0.40;99.90
31074;DHT22;17730;53.552;9.940;2023-04-03T04:23:54;0.40;99.90
31074;DHT22;17730;53.552;9.940;2023-04-03T04:26:19;0.30;99.90
31074;DHT22;17730;53.552;9.940;2023-04-03T04:28:45;0.30;99.90
31074;DHT22;17730;53.552;9.940;2023-04-03T04:31:11;0.40;99.90
31074;DHT22;17730;53.552;9.940;2023-04-03T04:33:36;0.40;99.90
31074;DHT22;17730;53.552;9.940;2023-04-03T04:36:01;0.40;99.90
31074;DHT22;17730;53.552;9.940;2023-04-03T04:38:27;0.30;99.90
31074;DHT22;17730;53.552;9.940;2023-04-03T04:40:52;0.30;99.90
31074;DHT22;17730;53.552;9.940;2023-04-03T04:43:18;0.30;99.90
31074;DHT22;17730;53.552;9.940;2023-04-03T04:45:43;0.40;99.90
31074;DHT22;17730;53.552;9.940;2023-04-03T04:48:09;0.40;1.00
31074;DHT22;17730;53.552;9.940;2023-04-03T04:50:34;0.40;99.90
31074;DHT22;17730;53.552;9.940;2023-04-03T04:53:00;0.40;99.90
31074;DHT22;17730;53.552;9.940;2023-04-03T04:55:25;0.50;99.90
31074;DHT22;17730;53.552;9.940;2023-04-03T04:57:51;0.50;99.90
31074;DHT22;17730;53.552;9.940;2023-04-03T05:00:16;0.50;99.90
31074;DHT22;17730;53.552;9.940;2023-04-03T05:02:42;0.50;99.90
31074;DHT22;17730;53.552;9.940;2023-04-03T05:05:08;0.50;99.90
31074;DHT22;17730;53.552;9.940;2023-04-03T05:07:33;0.50;99.90
31074;DHT22;17730;53.552;9.940;2023-04-03T05:10:01;0.50;99.90
31074;DHT22;17730;53.552;9.940;2023-04-03T05:12:26;0.50;99.90
31074;DHT22;17730;53.552;9.940;2023-04-03T05:14:52;0.50;99.90
31074;DHT22;17730;53.552;9.940;2023-04-03T05:17:17;0.50;99.90
31074;DHT22;17730;53.552;9.940;2023-04-03T05:19:42;0.50;99.90
31074;DHT22;17730;53.552;9.940;2023-04-03T05:22:08;0.60;99.90
31074;DHT22;17730;53.552;9.940;2023-04-03T05:24:33;0.60;99.90
31074;DHT22;17730;53.552;9.940;2023-04-03T05:26:59;0.70;99.90
31074;DHT22;17730;53.552;9.940;2023-04-03T05:29:24;0.70;99.90
31074;DHT22;17730;53.552;9.940;2023-04-03T05:31:50;0.70;99.90
31074;DHT22;17730;53.552;9.940;2023-04-03T05:34:16;0.80;99.90
31074;DHT22;17730;53.552;9.940;2023-04-03T05:36:41;0.80;99.90
31074;DHT22;17730;53.552;9.940;2023-04-03T05:39:07;0.90;99.90
31074;DHT22;17730;53.552;9.940;2023-04-03T05:41:33;1.00;99.90
31074;DHT22;17730;53.552;9.940;2023-04-03T05:43:58;1.00;99.90
31074;DHT22;17730;53.552;9.940;2023-04-03T05:46:23;1.00;99.90
31074;DHT22;17730;53.552;9.940;2023-04-03T05:48:49;1.10;99.90
31074;DHT22;17730;53.552;9.940;2023-04-03T05:51:16;1.20;99.90
31074;DHT22;17730;53.552;9.940;2023-04-03T05:53:42;1.30;99.90
31074;DHT22;17730;53.552;9.940;2023-04-03T05:56:08;1.30;99.90
31074;DHT22;17730;53.552;9.940;2023-04-03T05:58:34;1.40;99.90
31074;DHT22;17730;53.552;9.940;2023-04-03T06:00:59;1.50;86.50
31074;DHT22;17730;53.552;9.940;2023-04-03T06:03:25;1.50;46.10
31074;DHT22;17730;53.552;9.940;2023-04-03T06:05:50;1.60;11.10
31074;DHT22;17730;53.552;9.940;2023-04-03T06:08:16;1.70;1.00
31074;DHT22;17730;53.552;9.940;2023-04-03T06:10:41;1.80;99.90
31074;DHT22;17730;53.552;9.940;2023-04-03T06:13:07;1.90;99.90
31074;DHT22;17730;53.552;9.940;2023-04-03T06:15:33;2.00;99.90
31074;DHT22;17730;53.552;9.940;2023-04-03T06:17:59;2.10;99.90
31074;DHT22;17730;53.552;9.940;2023-04-03T06:20:24;2.10;96.70
31074;DHT22;17730;53.552;9.940;2023-04-03T06:22:50;2.30;39.90
31074;DHT22;17730;53.552;9.940;2023-04-03T06:25:15;2.40;99.90
31074;DHT22;17730;53.552;9.940;2023-04-03T06:27:42;2.50;99.90
31074;DHT22;17730;53.552;9.940;2023-04-03T06:30:08;2.60;99.90
31074;DHT22;17730;53.552;9.940;2023-04-03T06:32:33;2.70;70.80
31074;DHT22;17730;53.552;9.940;2023-04-03T06:34:59;2.80;99.90
31074;DHT22;17730;53.552;9.940;2023-04-03T06:37:25;2.90;99.90
31074;DHT22;17730;53.552;9.940;2023-04-03T06:39:51;3.10;99.90
31074;DHT22;17730;53.552;9.940;2023-04-03T06:42:16;3.20;99.90
31074;DHT22;17730;53.552;9.940;2023-04-03T06:44:42;3.30;99.90
31074;DHT22;17730;53.552;9.940;2023-04-03T06:47:09;3.40;99.90
31074;DHT22;17730;53.552;9.940;2023-04-03T06:49:36;3.50;99.90
31074;DHT22;17730;53.552;9.940;2023-04-03T06:52:02;3.70;81.20
31074;DHT22;17730;53.552;9.940;2023-04-03T06:54:28;3.80;5.50
31074;DHT22;17730;53.552;9.940;2023-04-03T06:56:53;4.00;1.00
31074;DHT22;17730;53.552;9.940;2023-04-03T06:59:19;4.20;99.90
31074;DHT22;17730;53.552;9.940;2023-04-03T07:01:45;4.30;1.00
31074;DHT22;17730;53.552;9.940;2023-04-03T07:04:10;4.30;99.90
31074;DHT22;17730;53.552;9.940;2023-04-03T07:06:36;4.20;99.90
31074;DHT22;17730;53.552;9.940;2023-04-03T07:09:01;4.30;93.10
31074;DHT22;17730;53.552;9.940;2023-04-03T07:11:28;4.40;1.00
31074;DHT22;17730;53.552;9.940;2023-04-03T07:13:53;4.50;99.90
31074;DHT22;17730;53.552;9.940;2023-04-03T07:16:19;4.60;99.90
31074;DHT22;17730;53.552;9.940;2023-04-03T07:18:45;4.70;99.90
31074;DHT22;17730;53.552;9.940;2023-04-03T07:21:11;4.90;59.50
31074;DHT22;17730;53.552;9.940;2023-04-03T07:23:37;4.90;99.90
31074;DHT22;17730;53.552;9.940;2023-04-03T07:26:03;5.00;99.90
31074;DHT22;17730;53.552;9.940;2023-04-03T07:28:28;5.20;99.90
31074;DHT22;17730;53.552;9.940;2023-04-03T07:31:02;5.20;99.90
31074;DHT22;17730;53.552;9.940;2023-04-03T07:33:27;5.20;29.70
31074;DHT22;17730;53.552;9.940;2023-04-03T07:35:53;5.10;99.90
31074;DHT22;17730;53.552;9.940;2023-04-03T07:38:19;5.10;99.90
31074;DHT22;17730;53.552;9.940;2023-04-03T07:40:45;5.10;99.90
31074;DHT22;17730;53.552;9.940;2023-04-03T07:43:11;5.10;99.90
31074;DHT22;17730;53.552;9.940;2023-04-03T07:45:37;5.20;1.00
31074;DHT22;17730;53.552;9.940;2023-04-03T07:48:02;5.40;1.00
31074;DHT22;17730;53.552;9.940;2023-04-03T07:50:28;5.40;99.90
31074;DHT22;17730;53.552;9.940;2023-04-03T07:52:55;5.50;99.90
31074;DHT22;17730;53.552;9.940;2023-04-03T07:55:23;5.70;99.90
31074;DHT22;17730;53.552;9.940;2023-04-03T07:57:48;5.80;99.90
31074;DHT22;17730;53.552;9.940;2023-04-03T08:00:14;5.80;99.90
31074;DHT22;17730;53.552;9.940;2023-04-03T08:02:43;5.80;99.90
31074;DHT22;17730;53.552;9.940;2023-04-03T08:05:10;5.70;99.90
31074;DHT22;17730;53.552;9.940;2023-04-03T08:07:36;5.60;95.90
31074;DHT22;17730;53.552;9.940;2023-04-03T08:10:02;5.60;99.90
31074;DHT22;17730;53.552;9.940;2023-04-03T08:12:27;5.50;84.90
31074;DHT22;17730;53.552;9.940;2023-04-03T08:14:55;5.60;19.40
31074;DHT22;17730;53.552;9.940;2023-04-03T08:17:21;5.80;1.00
31074;DHT22;17730;53.552;9.940;2023-04-03T08:19:46;5.90;99.90
31074;DHT22;17730;53.552;9.940;2023-04-03T08:22:12;5.80;99.90
31074;DHT22;17730;53.552;9.940;2023-04-03T08:24:37;6.00;99.90
31074;DHT22;17730;53.552;9.940;2023-04-03T08:27:03;6.00;99.90
31074;DHT22;17730;53.552;9.940;2023-04-03T08:29:29;6.20;58.50
31074;DHT22;17730;53.552;9.940;2023-04-03T08:31:54;6.30;1.00
31074;DHT22;17730;53.552;9.940;2023-04-03T08:34:20;6.60;1.00
31074;DHT22;17730;53.552;9.940;2023-04-03T08:36:46;6.90;99.90
31074;DHT22;17730;53.552;9.940;2023-04-03T08:39:12;6.90;99.90
31074;DHT22;17730;53.552;9.940;2023-04-03T08:41:41;6.70;99.90
31074;DHT22;17730;53.552;9.940;2023-04-03T08:44:13;6.70;99.90
31074;DHT22;17730;53.552;9.940;2023-04-03T08:49:17;6.80;99.90
31074;DHT22;17730;53.552;9.940;2023-04-03T08:51:46;6.80;99.90
31074;DHT22;17730;53.552;9.940;2023-04-03T08:57:06;6.90;99.90
31074;DHT22;17730;53.552;9.940;2023-04-03T08:59:33;7.00;99.90
31074;DHT22;17730;53.552;9.940;2023-04-03T09:01:59;6.90;99.90
31074;DHT22;17730;53.552;9.940;2023-04-03T09:04:27;6.90;99.90
31074;DHT22;17730;53.552;9.940;2023-04-03T09:06:54;6.90;99.90
31074;DHT22;17730;53.552;9.940;2023-04-03T09:11:58;6.90;99.90
31074;DHT22;17730;53.552;9.940;2023-04-03T09:14:27;7.30;99.90
31074;DHT22;17730;53.552;9.940;2023-04-03T09:17:00;7.60;99.90
31074;DHT22;17730;53.552;9.940;2023-04-03T09:21:58;7.50;56.00
31074;DHT22;17730;53.552;9.940;2023-04-03T09:24:23;7.30;61.60
31074;DHT22;17730;53.552;9.940;2023-04-03T09:29:17;7.60;66.70
31074;DHT22;17730;53.552;9.940;2023-04-03T09:31:44;7.70;45.90
31074;DHT22;17730;53.552;9.940;2023-04-03T09:34:18;7.80;42.80
31074;DHT22;17730;53.552;9.940;2023-04-03T09:36:48;7.60;48.90
31074;DHT22;17730;53.552;9.940;2023-04-03T09:39:17;7.70;51.60
31074;DHT22;17730;53.552;9.940;2023-04-03T09:44:21;8.10;17.70
31074;DHT22;17730;53.552;9.940;2023-04-03T09:46:47;8.30;10.90
31074;DHT22;17730;53.552;9.940;2023-04-03T09:49:13;8.30;8.00
31074;DHT22;17730;53.552;9.940;2023-04-03T09:51:38;7.90;2.30
31074;DHT22;17730;53.552;9.940;2023-04-03T09:54:23;7.80;3.10
31074;DHT22;17730;53.552;9.940;2023-04-03T09:56:53;8.00;1.00
31074;DHT22;17730;53.552;9.940;2023-04-03T09:59:18;8.50;1.00
31074;DHT22;17730;53.552;9.940;2023-04-03T10:01:58;8.50;1.00
31074;DHT22;17730;53.552;9.940;2023-04-03T10:04:24;8.60;1.00
31074;DHT22;17730;53.552;9.940;2023-04-03T10:06:53;8.90;1.00
31074;DHT22;17730;53.552;9.940;2023-04-03T10:09:20;9.30;1.00
31074;DHT22;17730;53.552;9.940;2023-04-03T10:14:24;8.90;1.00
31074;DHT22;17730;53.552;9.940;2023-04-03T10:16:53;8.60;1.00
31074;DHT22;17730;53.552;9.940;2023-04-03T10:22:16;8.50;1.00
31074;DHT22;17730;53.552;9.940;2023-04-03T10:27:42;8.30;1.00
31074;DHT22;17730;53.552;9.940;2023-04-03T10:35:15;8.00;1.00
31074;DHT22;17730;53.552;9.940;2023-04-03T10:37:56;8.20;1.00
31074;DHT22;17730;53.552;9.940;2023-04-03T10:40:30;8.40;1.00
31074;DHT22;17730;53.552;9.940;2023-04-03T10:46:28;8.80;1.00
31074;DHT22;17730;53.552;9.940;2023-04-03T10:48:36;8.70;1.00
31074;DHT22;17730;53.552;9.940;2023-04-03T10:51:13;8.50;1.00
31074;DHT22;17730;53.552;9.940;2023-04-03T10:53:44;8.60;1.00
31074;DHT22;17730;53.552;9.940;2023-04-03T10:58:40;8.50;1.00
31074;DHT22;17730;53.552;9.940;2023-04-03T11:01:14;8.50;1.00
31074;DHT22;17730;53.552;9.940;2023-04-03T11:03:47;8.40;1.00
31074;DHT22;17730;53.552;9.940;2023-04-03T11:06:15;8.30;1.00
31074;DHT22;17730;53.552;9.940;2023-04-03T11:11:17;8.40;1.00
31074;DHT22;17730;53.552;9.940;2023-04-03T11:16:13;8.90;1.00
31074;DHT22;17730;53.552;9.940;2023-04-03T11:18:43;8.70;1.00
31074;DHT22;17730;53.552;9.940;2023-04-03T11:21:19;8.70;1.00
31074;DHT22;17730;53.552;9.940;2023-04-03T11:23:47;8.90;1.00
31074;DHT22;17730;53.552;9.940;2023-04-03T11:26:19;9.30;1.00
31074;DHT22;17730;53.552;9.940;2023-04-03T11:28:46;9.60;1.00
31074;DHT22;17730;53.552;9.940;2023-04-03T11:31:30;9.30;1.00
31074;DHT22;17730;53.552;9.940;2023-04-03T11:34:04;9.00;1.00
31074;DHT22;17730;53.552;9.940;2023-04-03T11:36:33;9.10;1.00
31074;DHT22;17730;53.552;9.940;2023-04-03T11:39:02;9.40;1.00
31074;DHT22;17730;53.552;9.940;2023-04-03T11:41:31;9.30;1.00
31074;DHT22;17730;53.552;9.940;2023-04-03T11:44:25;9.20;1.00
31074;DHT22;17730;53.552;9.940;2023-04-03T11:46:49;9.60;1.00
31074;DHT22;17730;53.552;9.940;2023-04-03T11:52:00;9.70;1.00
31074;DHT22;17730;53.552;9.940;2023-04-03T11:54:36;9.80;1.00
31074;DHT22;17730;53.552;9.940;2023-04-03T11:59:52;10.00;1.00
31074;DHT22;17730;53.552;9.940;2023-04-03T12:05:28;9.70;1.00
31074;DHT22;17730;53.552;9.940;2023-04-03T12:08:15;9.50;1.00
31074;DHT22;17730;53.552;9.940;2023-04-03T12:10:41;9.80;1.00
31074;DHT22;17730;53.552;9.940;2023-04-03T12:13:12;9.70;1.00
31074;DHT22;17730;53.552;9.940;2023-04-03T12:15:50;9.40;1.00
31074;DHT22;17730;53.552;9.940;2023-04-03T12:18:39;9.20;1.00
31074;DHT22;17730;53.552;9.940;2023-04-03T12:21:06;9.30;1.00
31074;DHT22;17730;53.552;9.940;2023-04-03T12:23:32;9.50;1.00
31074;DHT22;17730;53.552;9.940;2023-04-03T12:25:59;9.40;1.00
31074;DHT22;17730;53.552;9.940;2023-04-03T12:28:26;9.10;1.00
31074;DHT22;17730;53.552;9.940;2023-04-03T12:30:52;9.30;1.00
31074;DHT22;17730;53.552;9.940;2023-04-03T12:33:24;9.60;1.00
31074;DHT22;17730;53.552;9.940;2023-04-03T12:36:14;9.70;1.00
31074;DHT22;17730;53.552;9.940;2023-04-03T12:38:41;9.90;1.00
31074;DHT22;17730;53.552;9.940;2023-04-03T12:48:39;10.30;99.90
31074;DHT22;17730;53.552;9.940;2023-04-03T12:51:13;10.40;99.90
31074;DHT22;17730;53.552;9.940;2023-04-03T12:53:39;10.00;99.90
31074;DHT22;17730;53.552;9.940;2023-04-03T12:56:20;9.90;99.90
31074;DHT22;17730;53.552;9.940;2023-04-03T12:58:46;10.00;99.90
31074;DHT22;17730;53.552;9.940;2023-04-03T13:01:16;10.00;99.90
31074;DHT22;17730;53.552;9.940;2023-04-03T13:03:44;9.90;99.90
31074;DHT22;17730;53.552;9.940;2023-04-03T13:06:11;9.20;99.90
31074;DHT22;17730;53.552;9.940;2023-04-03T13:08:47;8.60;99.90
31074;DHT22;17730;53.552;9.940;2023-04-03T13:11:15;8.50;99.90
31074;DHT22;17730;53.552;9.940;2023-04-03T13:13:53;8.40;99.90
31074;DHT22;17730;53.552;9.940;2023-04-03T13:16:18;8.70;99.90
31074;DHT22;17730;53.552;9.940;2023-04-03T13:18:44;8.90;99.90
31074;DHT22;17730;53.552;9.940;2023-04-03T13:21:17;8.80;99.90
31074;DHT22;17730;53.552;9.940;2023-04-03T13:23:45;8.70;99.90
31074;DHT22;17730;53.552;9.940;2023-04-03T13:26:11;9.00;99.90
31074;DHT22;17730;53.552;9.940;2023-04-03T13:28:38;9.20;99.90
31074;DHT22;17730;53.552;9.940;2023-04-03T13:33:50;9.10;99.90
31074;DHT22;17730;53.552;9.940;2023-04-03T13:36:19;9.20;99.90
31074;DHT22;17730;53.552;9.940;2023-04-03T13:38:46;9.30;99.90
31074;DHT22;17730;53.552;9.940;2023-04-03T13:41:24;8.90;99.90
31074;DHT22;17730;53.552;9.940;2023-04-03T13:43:50;8.70;99.90
31074;DHT22;17730;53.552;9.940;2023-04-03T13:48:42;8.80;99.90
31074;DHT22;17730;53.552;9.940;2023-04-03T13:53:44;8.80;99.90
31074;DHT22;17730;53.552;9.940;2023-04-03T13:56:21;8.60;99.90
31074;DHT22;17730;53.552;9.940;2023-04-03T13:59:02;8.60;99.90
31074;DHT22;17730;53.552;9.940;2023-04-03T14:01:38;8.70;99.90
31074;DHT22;17730;53.552;9.940;2023-04-03T14:04:24;8.80;99.90
31074;DHT22;17730;53.552;9.940;2023-04-03T14:06:51;8.70;99.90
31074;DHT22;17730;53.552;9.940;2023-04-03T14:09:18;8.50;99.90
31074;DHT22;17730;53.552;9.940;2023-04-03T14:11:44;8.60;99.90
31074;DHT22;17730;53.552;9.940;2023-04-03T14:14:18;8.60;99.90
31074;DHT22;17730;53.552;9.940;2023-04-03T14:16:46;8.70;99.90
31074;DHT22;17730;53.552;9.940;2023-04-03T14:19:21;8.60;99.90
31074;DHT22;17730;53.552;9.940;2023-04-03T14:21:47;8.50;99.90
31074;DHT22;17730;53.552;9.940;2023-04-03T14:24:13;8.30;99.90
31074;DHT22;17730;53.552;9.940;2023-04-03T14:26:38;8.20;99.90
31074;DHT22;17730;53.552;9.940;2023-04-03T14:29:04;8.30;99.90
31074;DHT22;17730;53.552;9.940;2023-04-03T14:31:29;8.30;99.90
31074;DHT22;17730;53.552;9.940;2023-04-03T14:33:55;8.30;99.90
31074;DHT22;17730;53.552;9.940;2023-04-03T14:36:22;8.30;99.90
31074;DHT22;17730;53.552;9.940;2023-04-03T14:38:48;8.20;99.90
31074;DHT22;17730;53.552;9.940;2023-04-03T14:41:15;8.30;99.90
31074;DHT22;17730;53.552;9.940;2023-04-03T14:43:41;8.30;99.90
31074;DHT22;17730;53.552;9.940;2023-04-03T14:46:14;8.40;99.90
31074;DHT22;17730;53.552;9.940;2023-04-03T14:48:41;8.40;99.90
31074;DHT22;17730;53.552;9.940;2023-04-03T14:51:06;8.40;99.90
31074;DHT22;17730;53.552;9.940;2023-04-03T14:53:32;8.40;99.90
31074;DHT22;17730;53.552;9.940;2023-04-03T14:55:57;8.40;99.90
31074;DHT22;17730;53.552;9.940;2023-04-03T14:58:23;8.40;99.90
31074;DHT22;17730;53.552;9.940;2023-04-03T15:00:49;8.30;99.90
31074;DHT22;17730;53.552;9.940;2023-04-03T15:03:16;8.30;99.90
31074;DHT22;17730;53.552;9.940;2023-04-03T15:05:42;8.20;99.90
31074;DHT22;17730;53.552;9.940;2023-04-03T15:08:13;8.10;99.90
31074;DHT22;17730;53.552;9.940;2023-04-03T15:10:41;8.10;99.90
31074;DHT22;17730;53.552;9.940;2023-04-03T15:13:08;8.10;99.90
31074;DHT22;17730;53.552;9.940;2023-04-03T15:15:33;8.20;99.90
31074;DHT22;17730;53.552;9.940;2023-04-03T15:18:00;8.50;99.90
31074;DHT22;17730;53.552;9.940;2023-04-03T15:20:26;8.60;99.90
31074;DHT22;17730;53.552;9.940;2023-04-03T15:22:52;8.50;99.90
31074;DHT22;17730;53.552;9.940;2023-04-03T15:25:18;8.60;99.90
31074;DHT22;17730;53.552;9.940;2023-04-03T15:27:44;8.60;99.90
31074;DHT22;17730;53.552;9.940;2023-04-03T15:30:16;8.40;99.90
31074;DHT22;17730;53.552;9.940;2023-04-03T15:32:42;8.20;99.90
31074;DHT22;17730;53.552;9.940;2023-04-03T15:35:08;8.10;99.90
31074;DHT22;17730;53.552;9.940;2023-04-03T15:37:34;8.10;99.90
31074;DHT22;17730;53.552;9.940;2023-04-03T15:39:59;8.00;99.90
31074;DHT22;17730;53.552;9.940;2023-04-03T15:42:25;7.90;99.90
31074;DHT22;17730;53.552;9.940;2023-04-03T15:44:50;7.90;99.90
31074;DHT22;17730;53.552;9.940;2023-04-03T15:47:16;7.80;99.90
31074;DHT22;17730;53.552;9.940;2023-04-03T15:49:41;7.80;99.90
31074;DHT22;17730;53.552;9.940;2023-04-03T15:52:07;7.80;99.90
31074;DHT22;17730;53.552;9.940;2023-04-03T15:54:33;7.70;99.90
31074;DHT22;17730;53.552;9.940;2023-04-03T15:56:58;7.80;99.90
31074;DHT22;17730;53.552;9.940;2023-04-03T15:59:24;7.80;99.90
31074;DHT22;17730;53.552;9.940;2023-04-03T16:01:49;7.90;99.90
31074;DHT22;17730;53.552;9.940;2023-04-03T16:04:16;7.80;99.90
31074;DHT22;17730;53.552;9.940;2023-04-03T16:06:42;7.80;99.90
31074;DHT22;17730;53.552;9.940;2023-04-03T16:09:07;7.80;99.90
31074;DHT22;17730;53.552;9.940;2023-04-03T16:11:33;7.60;99.90
31074;DHT22;17730;53.552;9.940;2023-04-03T16:14:00;7.50;99.90
31074;DHT22;17730;53.552;9.940;2023-04-03T16:16:26;7.50;99.90
31074;DHT22;17730;53.552;9.940;2023-04-03T16:18:53;7.50;99.90
31074;DHT22;17730;53.552;9.940;2023-04-03T16:21:18;7.60;99.90
31074;DHT22;17730;53.552;9.940;2023-04-03T16:23:44;7.70;99.90
31074;DHT22;17730;53.552;9.940;2023-04-03T16:26:09;7.70;99.90
31074;DHT22;17730;53.552;9.940;2023-04-03T16:28:35;7.60;99.90
31074;DHT22;17730;53.552;9.940;2023-04-03T16:31:01;7.60;99.90
31074;DHT22;17730;53.552;9.940;2023-04-03T16:33:26;7.50;99.90
31074;DHT22;17730;53.552;9.940;2023-04-03T16:35:52;7.40;99.90
31074;DHT22;17730;53.552;9.940;2023-04-03T16:38:17;7.20;99.90
31074;DHT22;17730;53.552;9.940;2023-04-03T16:40:44;7.20;99.90
31074;DHT22;17730;53.552;9.940;2023-04-03T16:43:10;7.10;99.90
31074;DHT22;17730;53.552;9.940;2023-04-03T16:45:35;7.20;99.90
31074;DHT22;17730;53.552;9.940;2023-04-03T16:48:01;7.20;99.90
31074;DHT22;17730;53.552;9.940;2023-04-03T16:50:26;7.10;99.90
31074;DHT22;17730;53.552;9.940;2023-04-03T16:52:52;7.00;99.90
31074;DHT22;17730;53.552;9.940;2023-04-03T16:55:17;7.00;99.90
31074;DHT22;17730;53.552;9.940;2023-04-03T16:57:43;7.00;99.90
31074;DHT22;17730;53.552;9.940;2023-04-03T17:00:08;6.80;99.90
31074;DHT22;17730;53.552;9.940;2023-04-03T17:02:34;6.80;99.90